sensor_id;sensor_type;location;lat;lon;timestamp;temperature;humidity
42841;DHT22;28491;46.898;7.660;2022-12-10T00:00:39;0.90;99.40
42841;DHT22;28491;46.898;7.660;2022-12-10T00:03:04;0.90;99.40
42841;DHT22;28491;46.898;7.660;2022-12-10T00:05:33;0.90;99.40
42841;DHT22;28491;46.898;7.660;2022-12-10T00:07:59;0.90;99.40
42841;DHT22;28491;46.898;7.660;2022-12-10T00:10:24;0.90;99.40
42841;DHT22;28491;46.898;7.660;2022-12-10T00:12:50;0.90;99.40
42841;DHT22;28491;46.898;7.660;2022-12-10T00:15:15;0.90;99.40
42841;DHT22;28491;46.898;7.660;2022-12-10T00:17:41;0.90;99.50
42841;DHT22;28491;46.898;7.660;2022-12-10T00:20:08;0.90;99.50
42841;DHT22;28491;46.898;7.660;2022-12-10T00:22:34;1.00;99.50
42841;DHT22;28491;46.898;7.660;2022-12-10T00:24:59;1.10;99.60
42841;DHT22;28491;46.898;7.660;2022-12-10T00:27:25;1.00;99.50
42841;DHT22;28491;46.898;7.660;2022-12-10T00:29:50;1.00;99.50
42841;DHT22;28491;46.898;7.660;2022-12-10T00:32:16;1.00;99.50
42841;DHT22;28491;46.898;7.660;2022-12-10T00:34:42;1.00;99.40
42841;DHT22;28491;46.898;7.660;2022-12-10T00:37:07;1.00;99.40
42841;DHT22;28491;46.898;7.660;2022-12-10T00:39:33;1.00;99.40
42841;DHT22;28491;46.898;7.660;2022-12-10T00:41:58;1.00;99.40
42841;DHT22;28491;46.898;7.660;2022-12-10T00:44:24;0.90;99.40
42841;DHT22;28491;46.898;7.660;2022-12-10T00:46:49;0.90;99.40
42841;DHT22;28491;46.898;7.660;2022-12-10T00:49:15;1.00;99.50
42841;DHT22;28491;46.898;7.660;2022-12-10T00:51:40;1.00;99.50
42841;DHT22;28491;46.898;7.660;2022-12-10T00:54:06;1.00;99.50
42841;DHT22;28491;46.898;7.660;2022-12-10T00:56:33;1.00;99.50
42841;DHT22;28491;46.898;7.660;2022-12-10T00:58:59;0.90;99.40
42841;DHT22;28491;46.898;7.660;2022-12-10T01:01:29;0.90;99.40
42841;DHT22;28491;46.898;7.660;2022-12-10T01:04:03;0.90;99.50
42841;DHT22;28491;46.898;7.660;2022-12-10T01:06:39;0.90;99.50
42841;DHT22;28491;46.898;7.660;2022-12-10T01:09:07;0.90;99.50
42841;DHT22;28491;46.898;7.660;2022-12-10T01:11:36;0.90;99.50
42841;DHT22;28491;46.898;7.660;2022-12-10T01:14:08;0.90;99.50
42841;DHT22;28491;46.898;7.660;2022-12-10T01:16:34;0.90;99.50
42841;DHT22;28491;46.898;7.660;2022-12-10T01:19:00;0.90;99.50
42841;DHT22;28491;46.898;7.660;2022-12-10T01:21:28;0.90;99.50
42841;DHT22;28491;46.898;7.660;2022-12-10T01:23:55;0.90;99.50
42841;DHT22;28491;46.898;7.660;2022-12-10T01:26:27;0.90;99.50
42841;DHT22;28491;46.898;7.660;2022-12-10T01:28:54;0.90;99.50
42841;DHT22;28491;46.898;7.660;2022-12-10T01:31:25;0.90;99.50
42841;DHT22;28491;46.898;7.660;2022-12-10T01:33:51;0.80;99.50
42841;DHT22;28491;46.898;7.660;2022-12-10T01:36:22;0.90;99.50
42841;DHT22;28491;46.898;7.660;2022-12-10T01:38:48;0.90;99.50
42841;DHT22;28491;46.898;7.660;2022-12-10T01:41:18;0.90;99.50
42841;DHT22;28491;46.898;7.660;2022-12-10T01:46:14;0.90;99.50
42841;DHT22;28491;46.898;7.660;2022-12-10T01:48:40;0.90;99.50
42841;DHT22;28491;46.898;7.660;2022-12-10T01:51:06;0.90;99.50
42841;DHT22;28491;46.898;7.660;2022-12-10T01:53:32;0.90;99.50
42841;DHT22;28491;46.898;7.660;2022-12-10T01:55:58;0.80;99.50
42841;DHT22;28491;46.898;7.660;2022-12-10T01:58:23;0.80;99.50
42841;DHT22;28491;46.898;7.660;2022-12-10T02:01:28;0.80;99.50
42841;DHT22;28491;46.898;7.660;2022-12-10T02:04:06;0.90;99.60
42841;DHT22;28491;46.898;7.660;2022-12-10T02:09:38;0.80;99.60
42841;DHT22;28491;46.898;7.660;2022-12-10T02:15:09;0.80;99.60
42841;DHT22;28491;46.898;7.660;2022-12-10T02:17:53;0.80;99.60
42841;DHT22;28491;46.898;7.660;2022-12-10T02:20:29;0.80;99.60
42841;DHT22;28491;46.898;7.660;2022-12-10T02:23:05;0.90;99.60
42841;DHT22;28491;46.898;7.660;2022-12-10T02:25:53;0.90;99.60
42841;DHT22;28491;46.898;7.660;2022-12-10T02:28:31;0.90;99.60
42841;DHT22;28491;46.898;7.660;2022-12-10T02:31:00;0.90;99.70
42841;DHT22;28491;46.898;7.660;2022-12-10T02:33:27;0.90;99.70
42841;DHT22;28491;46.898;7.660;2022-12-10T02:35:56;1.00;99.70
42841;DHT22;28491;46.898;7.660;2022-12-10T02:38:26;0.90;99.60
42841;DHT22;28491;46.898;7.660;2022-12-10T02:40:54;0.90;99.60
42841;DHT22;28491;46.898;7.660;2022-12-10T02:43:22;0.90;99.60
42841;DHT22;28491;46.898;7.660;2022-12-10T02:45:50;0.90;99.60
42841;DHT22;28491;46.898;7.660;2022-12-10T02:48:16;0.90;99.60
42841;DHT22;28491;46.898;7.660;2022-12-10T02:50:42;0.90;99.60
42841;DHT22;28491;46.898;7.660;2022-12-10T02:53:07;0.90;99.60
42841;DHT22;28491;46.898;7.660;2022-12-10T02:56:08;0.90;99.60
42841;DHT22;28491;46.898;7.660;2022-12-10T03:07:18;0.90;99.60
42841;DHT22;28491;46.898;7.660;2022-12-10T03:09:54;0.90;99.60
42841;DHT22;28491;46.898;7.660;2022-12-10T03:12:33;0.90;99.60
42841;DHT22;28491;46.898;7.660;2022-12-10T03:15:04;0.90;99.60
42841;DHT22;28491;46.898;7.660;2022-12-10T03:17:31;0.90;99.60
42841;DHT22;28491;46.898;7.660;2022-12-10T03:19:59;0.90;99.60
42841;DHT22;28491;46.898;7.660;2022-12-10T03:22:26;0.90;99.60
42841;DHT22;28491;46.898;7.660;2022-12-10T03:24:52;0.90;99.60
42841;DHT22;28491;46.898;7.660;2022-12-10T03:27:23;0.80;99.60
42841;DHT22;28491;46.898;7.660;2022-12-10T03:29:51;0.80;99.60
42841;DHT22;28491;46.898;7.660;2022-12-10T03:32:18;0.80;99.60
42841;DHT22;28491;46.898;7.660;2022-12-10T03:34:46;0.80;99.60
42841;DHT22;28491;46.898;7.660;2022-12-10T03:37:13;0.90;99.60
42841;DHT22;28491;46.898;7.660;2022-12-10T03:39:40;0.90;99.60
42841;DHT22;28491;46.898;7.660;2022-12-10T03:42:06;0.90;99.70
42841;DHT22;28491;46.898;7.660;2022-12-10T03:44:34;0.90;99.70
42841;DHT22;28491;46.898;7.660;2022-12-10T03:47:02;0.90;99.70
42841;DHT22;28491;46.898;7.660;2022-12-10T03:49:28;0.90;99.70
42841;DHT22;28491;46.898;7.660;2022-12-10T03:51:54;0.90;99.70
42841;DHT22;28491;46.898;7.660;2022-12-10T03:54:19;0.90;99.70
42841;DHT22;28491;46.898;7.660;2022-12-10T03:56:45;0.90;99.70
42841;DHT22;28491;46.898;7.660;2022-12-10T03:59:11;0.90;99.60
42841;DHT22;28491;46.898;7.660;2022-12-10T04:01:37;0.90;99.60
42841;DHT22;28491;46.898;7.660;2022-12-10T04:04:06;0.90;99.60
42841;DHT22;28491;46.898;7.660;2022-12-10T04:06:31;0.80;99.60
42841;DHT22;28491;46.898;7.660;2022-12-10T04:08:57;0.90;99.60
42841;DHT22;28491;46.898;7.660;2022-12-10T04:11:23;0.80;99.60
42841;DHT22;28491;46.898;7.660;2022-12-10T04:13:49;0.80;99.60
42841;DHT22;28491;46.898;7.660;2022-12-10T04:16:35;0.80;99.60
42841;DHT22;28491;46.898;7.660;2022-12-10T04:19:06;0.80;99.60
42841;DHT22;28491;46.898;7.660;2022-12-10T04:21:33;0.80;99.60
42841;DHT22;28491;46.898;7.660;2022-12-10T04:24:20;0.80;99.60
42841;DHT22;28491;46.898;7.660;2022-12-10T04:27:22;0.80;99.70
42841;DHT22;28491;46.898;7.660;2022-12-10T04:29:48;0.80;99.70
42841;DHT22;28491;46.898;7.660;2022-12-10T04:32:14;0.80;99.70
42841;DHT22;28491;46.898;7.660;2022-12-10T04:34:40;0.80;99.70
42841;DHT22;28491;46.898;7.660;2022-12-10T04:37:06;0.80;99.70
42841;DHT22;28491;46.898;7.660;2022-12-10T04:39:32;0.80;99.70
42841;DHT22;28491;46.898;7.660;2022-12-10T04:41:59;0.90;99.70
42841;DHT22;28491;46.898;7.660;2022-12-10T04:44:25;0.80;99.70
42841;DHT22;28491;46.898;7.660;2022-12-10T04:46:50;0.80;99.70
42841;DHT22;28491;46.898;7.660;2022-12-10T04:49:16;0.80;99.70
42841;DHT22;28491;46.898;7.660;2022-12-10T04:51:42;0.80;99.70
42841;DHT22;28491;46.898;7.660;2022-12-10T04:54:08;0.80;99.70
42841;DHT22;28491;46.898;7.660;2022-12-10T04:56:35;0.80;99.70
42841;DHT22;28491;46.898;7.660;2022-12-10T04:59:01;0.80;99.70
42841;DHT22;28491;46.898;7.660;2022-12-10T05:01:28;0.80;99.70
42841;DHT22;28491;46.898;7.660;2022-12-10T05:03:54;0.80;99.70
42841;DHT22;28491;46.898;7.660;2022-12-10T05:06:20;0.80;99.70
42841;DHT22;28491;46.898;7.660;2022-12-10T05:08:46;0.80;99.70
42841;DHT22;28491;46.898;7.660;2022-12-10T05:11:14;0.80;99.70
42841;DHT22;28491;46.898;7.660;2022-12-10T05:13:40;0.80;99.70
42841;DHT22;28491;46.898;7.660;2022-12-10T05:16:09;0.80;99.70
42841;DHT22;28491;46.898;7.660;2022-12-10T05:18:35;0.80;99.70
42841;DHT22;28491;46.898;7.660;2022-12-10T05:21:02;0.80;99.70
42841;DHT22;28491;46.898;7.660;2022-12-10T05:23:28;0.80;99.70
42841;DHT22;28491;46.898;7.660;2022-12-10T05:26:04;0.80;99.70
42841;DHT22;28491;46.898;7.660;2022-12-10T05:28:32;0.80;99.70
42841;DHT22;28491;46.898;7.660;2022-12-10T05:30:58;0.80;99.70
42841;DHT22;28491;46.898;7.660;2022-12-10T05:33:26;0.80;99.70
42841;DHT22;28491;46.898;7.660;2022-12-10T05:35:59;0.80;99.70
42841;DHT22;28491;46.898;7.660;2022-12-10T05:38:27;0.80;99.70
42841;DHT22;28491;46.898;7.660;2022-12-10T05:40:53;0.80;99.70
42841;DHT22;28491;46.898;7.660;2022-12-10T05:43:19;0.80;99.70
42841;DHT22;28491;46.898;7.660;2022-12-10T05:45:45;0.80;99.70
42841;DHT22;28491;46.898;7.660;2022-12-10T05:48:12;0.80;99.70
42841;DHT22;28491;46.898;7.660;2022-12-10T05:50:38;0.70;99.70
42841;DHT22;28491;46.898;7.660;2022-12-10T05:53:04;0.70;99.70
42841;DHT22;28491;46.898;7.660;2022-12-10T05:55:30;0.70;99.70
42841;DHT22;28491;46.898;7.660;2022-12-10T05:57:57;0.70;99.70
42841;DHT22;28491;46.898;7.660;2022-12-10T06:00:22;0.70;99.70
42841;DHT22;28491;46.898;7.660;2022-12-10T06:02:49;0.70;99.70
42841;DHT22;28491;46.898;7.660;2022-12-10T06:05:15;0.80;99.80
42841;DHT22;28491;46.898;7.660;2022-12-10T06:07:41;0.80;99.80
42841;DHT22;28491;46.898;7.660;2022-12-10T06:10:07;0.80;99.80
42841;DHT22;28491;46.898;7.660;2022-12-10T06:12:33;0.80;99.80
42841;DHT22;28491;46.898;7.660;2022-12-10T06:14:58;0.80;99.80
42841;DHT22;28491;46.898;7.660;2022-12-10T06:17:24;0.80;99.80
42841;DHT22;28491;46.898;7.660;2022-12-10T06:19:49;0.80;99.80
42841;DHT22;28491;46.898;7.660;2022-12-10T06:22:15;0.80;99.80
42841;DHT22;28491;46.898;7.660;2022-12-10T06:24:41;0.80;99.80
42841;DHT22;28491;46.898;7.660;2022-12-10T06:27:06;0.80;99.80
42841;DHT22;28491;46.898;7.660;2022-12-10T06:29:32;0.80;99.80
42841;DHT22;28491;46.898;7.660;2022-12-10T06:31:57;0.80;99.70
42841;DHT22;28491;46.898;7.660;2022-12-10T06:34:23;0.80;99.70
42841;DHT22;28491;46.898;7.660;2022-12-10T06:36:49;0.70;99.70
42841;DHT22;28491;46.898;7.660;2022-12-10T06:39:14;0.80;99.70
42841;DHT22;28491;46.898;7.660;2022-12-10T06:41:40;0.80;99.70
42841;DHT22;28491;46.898;7.660;2022-12-10T06:44:09;0.80;99.70
42841;DHT22;28491;46.898;7.660;2022-12-10T06:46:35;0.80;99.70
42841;DHT22;28491;46.898;7.660;2022-12-10T06:49:02;0.80;99.70
42841;DHT22;28491;46.898;7.660;2022-12-10T06:51:28;0.80;99.70
42841;DHT22;28491;46.898;7.660;2022-12-10T06:53:53;0.80;99.70
42841;DHT22;28491;46.898;7.660;2022-12-10T06:56:19;0.80;99.70
42841;DHT22;28491;46.898;7.660;2022-12-10T06:58:45;0.80;99.70
42841;DHT22;28491;46.898;7.660;2022-12-10T07:01:17;0.80;99.70
42841;DHT22;28491;46.898;7.660;2022-12-10T07:03:48;0.80;99.70
42841;DHT22;28491;46.898;7.660;2022-12-10T07:06:13;0.80;99.70
42841;DHT22;28491;46.898;7.660;2022-12-10T07:08:39;0.80;99.70
42841;DHT22;28491;46.898;7.660;2022-12-10T07:11:07;0.80;99.70
42841;DHT22;28491;46.898;7.660;2022-12-10T07:13:33;0.80;99.70
42841;DHT22;28491;46.898;7.660;2022-12-10T07:15:59;0.90;99.70
42841;DHT22;28491;46.898;7.660;2022-12-10T07:18:25;0.90;99.70
42841;DHT22;28491;46.898;7.660;2022-12-10T07:20:50;0.90;99.70
42841;DHT22;28491;46.898;7.660;2022-12-10T07:23:16;0.80;99.60
42841;DHT22;28491;46.898;7.660;2022-12-10T07:25:42;0.80;99.60
42841;DHT22;28491;46.898;7.660;2022-12-10T07:28:07;0.80;99.50
42841;DHT22;28491;46.898;7.660;2022-12-10T07:30:33;0.80;99.50
42841;DHT22;28491;46.898;7.660;2022-12-10T07:32:59;0.80;99.40
42841;DHT22;28491;46.898;7.660;2022-12-10T07:35:24;0.80;99.40
42841;DHT22;28491;46.898;7.660;2022-12-10T07:37:50;0.80;99.40
42841;DHT22;28491;46.898;7.660;2022-12-10T07:40:16;0.80;99.40
42841;DHT22;28491;46.898;7.660;2022-12-10T07:42:41;0.90;99.50
42841;DHT22;28491;46.898;7.660;2022-12-10T07:45:07;0.90;99.40
42841;DHT22;28491;46.898;7.660;2022-12-10T07:47:38;0.90;99.40
42841;DHT22;28491;46.898;7.660;2022-12-10T07:50:05;0.80;99.40
42841;DHT22;28491;46.898;7.660;2022-12-10T07:52:31;0.80;99.40
42841;DHT22;28491;46.898;7.660;2022-12-10T07:54:56;0.80;99.30
42841;DHT22;28491;46.898;7.660;2022-12-10T07:57:22;0.80;99.30
42841;DHT22;28491;46.898;7.660;2022-12-10T07:59:47;0.80;99.30
42841;DHT22;28491;46.898;7.660;2022-12-10T08:02:13;0.80;99.30
42841;DHT22;28491;46.898;7.660;2022-12-10T08:04:38;0.80;99.30
42841;DHT22;28491;46.898;7.660;2022-12-10T08:07:04;0.90;99.40
42841;DHT22;28491;46.898;7.660;2022-12-10T08:09:30;0.90;99.40
42841;DHT22;28491;46.898;7.660;2022-12-10T08:11:55;0.90;99.30
42841;DHT22;28491;46.898;7.660;2022-12-10T08:14:21;0.90;99.30
42841;DHT22;28491;46.898;7.660;2022-12-10T08:16:46;0.90;99.30
42841;DHT22;28491;46.898;7.660;2022-12-10T08:19:12;0.90;99.20
42841;DHT22;28491;46.898;7.660;2022-12-10T08:21:37;0.90;99.00
42841;DHT22;28491;46.898;7.660;2022-12-10T08:24:03;0.90;98.90
42841;DHT22;28491;46.898;7.660;2022-12-10T08:26:31;0.90;98.70
42841;DHT22;28491;46.898;7.660;2022-12-10T08:28:57;1.00;98.80
42841;DHT22;28491;46.898;7.660;2022-12-10T08:31:25;0.90;98.60
42841;DHT22;28491;46.898;7.660;2022-12-10T08:33:51;0.90;98.40
42841;DHT22;28491;46.898;7.660;2022-12-10T08:36:18;0.90;98.20
42841;DHT22;28491;46.898;7.660;2022-12-10T08:38:45;0.90;98.10
42841;DHT22;28491;46.898;7.660;2022-12-10T08:41:14;0.90;97.90
42841;DHT22;28491;46.898;7.660;2022-12-10T08:43:40;1.00;98.00
42841;DHT22;28491;46.898;7.660;2022-12-10T08:46:06;0.90;98.00
42841;DHT22;28491;46.898;7.660;2022-12-10T08:48:33;0.90;98.10
42841;DHT22;28491;46.898;7.660;2022-12-10T08:50:58;1.00;98.20
42841;DHT22;28491;46.898;7.660;2022-12-10T08:53:24;1.00;97.90
42841;DHT22;28491;46.898;7.660;2022-12-10T08:55:51;0.90;97.00
42841;DHT22;28491;46.898;7.660;2022-12-10T08:58:16;1.00;97.00
42841;DHT22;28491;46.898;7.660;2022-12-10T09:00:43;0.90;96.70
42841;DHT22;28491;46.898;7.660;2022-12-10T09:03:09;0.90;96.50
42841;DHT22;28491;46.898;7.660;2022-12-10T09:05:34;0.90;96.00
42841;DHT22;28491;46.898;7.660;2022-12-10T09:08:00;0.80;94.90
42841;DHT22;28491;46.898;7.660;2022-12-10T09:10:26;0.70;93.80
42841;DHT22;28491;46.898;7.660;2022-12-10T09:12:51;0.60;93.50
42841;DHT22;28491;46.898;7.660;2022-12-10T09:15:17;0.60;93.80
42841;DHT22;28491;46.898;7.660;2022-12-10T09:17:42;0.70;94.40
42841;DHT22;28491;46.898;7.660;2022-12-10T09:20:08;0.60;92.90
42841;DHT22;28491;46.898;7.660;2022-12-10T09:22:34;0.60;93.40
42841;DHT22;28491;46.898;7.660;2022-12-10T09:25:03;0.60;93.20
42841;DHT22;28491;46.898;7.660;2022-12-10T09:27:30;0.60;93.30
42841;DHT22;28491;46.898;7.660;2022-12-10T09:29:55;0.60;93.50
42841;DHT22;28491;46.898;7.660;2022-12-10T09:32:21;0.60;92.90
42841;DHT22;28491;46.898;7.660;2022-12-10T09:34:50;0.60;92.10
42841;DHT22;28491;46.898;7.660;2022-12-10T09:37:15;0.50;91.00
42841;DHT22;28491;46.898;7.660;2022-12-10T09:39:41;0.50;90.30
42841;DHT22;28491;46.898;7.660;2022-12-10T09:42:34;0.60;91.30
42841;DHT22;28491;46.898;7.660;2022-12-10T09:45:14;0.70;91.40
42841;DHT22;28491;46.898;7.660;2022-12-10T09:48:01;0.70;91.60
42841;DHT22;28491;46.898;7.660;2022-12-10T09:50:48;0.70;91.70
42841;DHT22;28491;46.898;7.660;2022-12-10T09:53:18;0.70;92.40
42841;DHT22;28491;46.898;7.660;2022-12-10T09:55:46;0.70;90.90
42841;DHT22;28491;46.898;7.660;2022-12-10T09:58:24;0.70;91.30
42841;DHT22;28491;46.898;7.660;2022-12-10T10:00:56;0.70;91.60
42841;DHT22;28491;46.898;7.660;2022-12-10T10:03:22;0.70;91.20
42841;DHT22;28491;46.898;7.660;2022-12-10T10:05:53;0.70;90.10
42841;DHT22;28491;46.898;7.660;2022-12-10T10:08:39;0.80;90.20
42841;DHT22;28491;46.898;7.660;2022-12-10T10:11:11;0.80;91.60
42841;DHT22;28491;46.898;7.660;2022-12-10T10:13:45;0.70;90.50
42841;DHT22;28491;46.898;7.660;2022-12-10T10:19:00;0.80;92.70
42841;DHT22;28491;46.898;7.660;2022-12-10T10:21:29;0.70;90.20
42841;DHT22;28491;46.898;7.660;2022-12-10T10:23:57;0.70;90.70
42841;DHT22;28491;46.898;7.660;2022-12-10T10:26:25;0.60;90.40
42841;DHT22;28491;46.898;7.660;2022-12-10T10:28:57;0.60;91.40
42841;DHT22;28491;46.898;7.660;2022-12-10T10:31:26;0.60;90.90
42841;DHT22;28491;46.898;7.660;2022-12-10T10:34:19;0.70;91.90
42841;DHT22;28491;46.898;7.660;2022-12-10T10:36:47;0.70;90.20
42841;DHT22;28491;46.898;7.660;2022-12-10T10:41:42;0.70;91.10
42841;DHT22;28491;46.898;7.660;2022-12-10T10:44:15;0.80;91.90
42841;DHT22;28491;46.898;7.660;2022-12-10T10:46:42;0.80;91.30
42841;DHT22;28491;46.898;7.660;2022-12-10T10:49:18;0.80;90.00
42841;DHT22;28491;46.898;7.660;2022-12-10T10:51:44;0.80;90.60
42841;DHT22;28491;46.898;7.660;2022-12-10T10:54:11;0.90;90.80
42841;DHT22;28491;46.898;7.660;2022-12-10T10:56:43;0.80;90.30
42841;DHT22;28491;46.898;7.660;2022-12-10T11:01:51;0.70;86.40
42841;DHT22;28491;46.898;7.660;2022-12-10T11:04:22;0.70;87.00
42841;DHT22;28491;46.898;7.660;2022-12-10T11:06:54;0.70;86.80
42841;DHT22;28491;46.898;7.660;2022-12-10T11:09:26;0.70;88.20
42841;DHT22;28491;46.898;7.660;2022-12-10T11:11:58;0.60;89.70
42841;DHT22;28491;46.898;7.660;2022-12-10T11:19:36;0.60;89.70
42841;DHT22;28491;46.898;7.660;2022-12-10T11:22:19;0.60;86.20
42841;DHT22;28491;46.898;7.660;2022-12-10T11:24:46;0.60;85.30
42841;DHT22;28491;46.898;7.660;2022-12-10T11:27:24;0.60;84.60
42841;DHT22;28491;46.898;7.660;2022-12-10T11:29:58;0.60;84.20
42841;DHT22;28491;46.898;7.660;2022-12-10T11:32:58;0.70;87.10
42841;DHT22;28491;46.898;7.660;2022-12-10T11:38:26;0.70;83.80
42841;DHT22;28491;46.898;7.660;2022-12-10T11:49:14;0.70;87.50
42841;DHT22;28491;46.898;7.660;2022-12-10T11:54:33;0.60;88.20
42841;DHT22;28491;46.898;7.660;2022-12-10T12:00:05;0.70;90.00
42841;DHT22;28491;46.898;7.660;2022-12-10T12:02:54;0.60;88.20
42841;DHT22;28491;46.898;7.660;2022-12-10T12:05:31;0.60;88.80
42841;DHT22;28491;46.898;7.660;2022-12-10T12:08:24;0.60;86.70
42841;DHT22;28491;46.898;7.660;2022-12-10T12:13:50;0.60;87.60
42841;DHT22;28491;46.898;7.660;2022-12-10T12:16:32;0.60;87.30
42841;DHT22;28491;46.898;7.660;2022-12-10T12:19:02;0.60;88.80
42841;DHT22;28491;46.898;7.660;2022-12-10T12:21:28;0.60;89.30
42841;DHT22;28491;46.898;7.660;2022-12-10T12:24:01;0.60;87.50
42841;DHT22;28491;46.898;7.660;2022-12-10T12:26:36;0.60;88.00
42841;DHT22;28491;46.898;7.660;2022-12-10T12:31:37;0.60;90.90
42841;DHT22;28491;46.898;7.660;2022-12-10T12:34:18;0.60;91.00
42841;DHT22;28491;46.898;7.660;2022-12-10T12:36:46;0.60;90.10
42841;DHT22;28491;46.898;7.660;2022-12-10T12:39:23;0.50;90.00
42841;DHT22;28491;46.898;7.660;2022-12-10T12:41:59;0.50;89.30
42841;DHT22;28491;46.898;7.660;2022-12-10T12:47:29;0.50;89.90
42841;DHT22;28491;46.898;7.660;2022-12-10T12:49:57;0.50;90.00
42841;DHT22;28491;46.898;7.660;2022-12-10T12:52:40;0.50;90.00
42841;DHT22;28491;46.898;7.660;2022-12-10T12:55:18;0.50;90.10
42841;DHT22;28491;46.898;7.660;2022-12-10T13:00:32;0.50;92.80
42841;DHT22;28491;46.898;7.660;2022-12-10T13:03:40;0.60;93.00
42841;DHT22;28491;46.898;7.660;2022-12-10T13:06:26;0.60;93.20
42841;DHT22;28491;46.898;7.660;2022-12-10T13:11:36;0.40;90.50
42841;DHT22;28491;46.898;7.660;2022-12-10T13:22:10;0.60;93.10
42841;DHT22;28491;46.898;7.660;2022-12-10T13:43:38;0.30;91.80
42841;DHT22;28491;46.898;7.660;2022-12-10T13:48:56;0.30;92.50
42841;DHT22;28491;46.898;7.660;2022-12-10T13:52:05;0.30;91.70
42841;DHT22;28491;46.898;7.660;2022-12-10T13:59:57;0.30;93.50
42841;DHT22;28491;46.898;7.660;2022-12-10T14:02:46;0.20;92.60
42841;DHT22;28491;46.898;7.660;2022-12-10T14:07:39;0.30;93.00
42841;DHT22;28491;46.898;7.660;2022-12-10T14:10:09;0.30;93.70
42841;DHT22;28491;46.898;7.660;2022-12-10T14:12:39;0.30;93.80
42841;DHT22;28491;46.898;7.660;2022-12-10T14:15:10;0.30;94.20
42841;DHT22;28491;46.898;7.660;2022-12-10T14:17:42;0.30;94.80
42841;DHT22;28491;46.898;7.660;2022-12-10T14:20:15;0.30;94.80
42841;DHT22;28491;46.898;7.660;2022-12-10T14:22:48;0.30;94.40
42841;DHT22;28491;46.898;7.660;2022-12-10T14:25:22;0.20;94.10
42841;DHT22;28491;46.898;7.660;2022-12-10T14:27:50;0.30;94.40
42841;DHT22;28491;46.898;7.660;2022-12-10T14:30:22;0.30;94.90
42841;DHT22;28491;46.898;7.660;2022-12-10T14:32:49;0.30;94.90
42841;DHT22;28491;46.898;7.660;2022-12-10T14:35:22;0.30;95.30
42841;DHT22;28491;46.898;7.660;2022-12-10T14:37:49;0.30;94.30
42841;DHT22;28491;46.898;7.660;2022-12-10T14:40:31;0.30;94.70
42841;DHT22;28491;46.898;7.660;2022-12-10T14:43:04;0.30;95.00
42841;DHT22;28491;46.898;7.660;2022-12-10T14:45:46;0.30;95.40
42841;DHT22;28491;46.898;7.660;2022-12-10T14:48:13;0.40;95.60
42841;DHT22;28491;46.898;7.660;2022-12-10T14:50:41;0.40;95.90
42841;DHT22;28491;46.898;7.660;2022-12-10T14:53:15;0.30;95.50
42841;DHT22;28491;46.898;7.660;2022-12-10T14:55:42;0.30;95.80
42841;DHT22;28491;46.898;7.660;2022-12-10T14:58:14;0.30;96.00
42841;DHT22;28491;46.898;7.660;2022-12-10T15:00:42;0.30;96.00
42841;DHT22;28491;46.898;7.660;2022-12-10T15:03:10;0.20;95.70
42841;DHT22;28491;46.898;7.660;2022-12-10T15:05:37;0.20;95.90
42841;DHT22;28491;46.898;7.660;2022-12-10T15:08:04;0.20;96.00
42841;DHT22;28491;46.898;7.660;2022-12-10T15:10:36;0.20;95.90
42841;DHT22;28491;46.898;7.660;2022-12-10T15:13:04;0.20;95.90
42841;DHT22;28491;46.898;7.660;2022-12-10T15:15:36;0.10;95.80
42841;DHT22;28491;46.898;7.660;2022-12-10T15:18:08;0.10;95.80
42841;DHT22;28491;46.898;7.660;2022-12-10T15:28:34;0.10;96.30
42841;DHT22;28491;46.898;7.660;2022-12-10T15:31:12;0.10;96.10
42841;DHT22;28491;46.898;7.660;2022-12-10T15:33:54;0.10;95.80
42841;DHT22;28491;46.898;7.660;2022-12-10T15:38:49;0.00;95.60
42841;DHT22;28491;46.898;7.660;2022-12-10T15:41:48;-0.10;95.60
42841;DHT22;28491;46.898;7.660;2022-12-10T15:47:21;-0.10;95.50
42841;DHT22;28491;46.898;7.660;2022-12-10T15:49:49;-0.10;95.50
42841;DHT22;28491;46.898;7.660;2022-12-10T15:52:20;-0.10;95.50
42841;DHT22;28491;46.898;7.660;2022-12-10T15:54:48;-0.10;95.70
42841;DHT22;28491;46.898;7.660;2022-12-10T15:59:52;-0.20;95.60
42841;DHT22;28491;46.898;7.660;2022-12-10T16:05:12;-0.10;95.80
42841;DHT22;28491;46.898;7.660;2022-12-10T16:07:38;-0.10;95.90
42841;DHT22;28491;46.898;7.660;2022-12-10T16:10:04;-0.10;95.70
42841;DHT22;28491;46.898;7.660;2022-12-10T16:12:31;-0.20;95.50
42841;DHT22;28491;46.898;7.660;2022-12-10T16:14:58;-0.20;95.50
42841;DHT22;28491;46.898;7.660;2022-12-10T16:17:28;-0.20;95.70
42841;DHT22;28491;46.898;7.660;2022-12-10T16:20:26;-0.20;95.60
42841;DHT22;28491;46.898;7.660;2022-12-10T16:22:53;-0.20;95.60
42841;DHT22;28491;46.898;7.660;2022-12-10T16:25:19;-0.20;95.70
42841;DHT22;28491;46.898;7.660;2022-12-10T16:27:45;-0.10;95.90
42841;DHT22;28491;46.898;7.660;2022-12-10T16:32:42;-0.10;95.70
42841;DHT22;28491;46.898;7.660;2022-12-10T16:35:08;-0.10;95.70
42841;DHT22;28491;46.898;7.660;2022-12-10T16:37:33;-0.10;95.50
42841;DHT22;28491;46.898;7.660;2022-12-10T16:40:00;-0.10;95.20
42841;DHT22;28491;46.898;7.660;2022-12-10T16:42:26;-0.20;95.30
42841;DHT22;28491;46.898;7.660;2022-12-10T16:44:51;-0.20;95.30
42841;DHT22;28491;46.898;7.660;2022-12-10T16:47:17;-0.20;95.20
42841;DHT22;28491;46.898;7.660;2022-12-10T16:49:42;-0.30;95.00
42841;DHT22;28491;46.898;7.660;2022-12-10T16:52:15;-0.30;95.50
42841;DHT22;28491;46.898;7.660;2022-12-10T16:54:40;-0.30;95.60
42841;DHT22;28491;46.898;7.660;2022-12-10T16:57:14;-0.30;95.60
42841;DHT22;28491;46.898;7.660;2022-12-10T16:59:40;-0.30;95.70
42841;DHT22;28491;46.898;7.660;2022-12-10T17:02:14;-0.30;96.00
42841;DHT22;28491;46.898;7.660;2022-12-10T17:04:40;-0.30;95.70
42841;DHT22;28491;46.898;7.660;2022-12-10T17:07:05;-0.40;95.70
42841;DHT22;28491;46.898;7.660;2022-12-10T17:09:31;-0.40;95.70
42841;DHT22;28491;46.898;7.660;2022-12-10T17:11:57;-0.30;96.10
42841;DHT22;28491;46.898;7.660;2022-12-10T17:14:25;-0.30;96.10
42841;DHT22;28491;46.898;7.660;2022-12-10T17:16:53;-0.30;95.90
42841;DHT22;28491;46.898;7.660;2022-12-10T17:19:19;-0.40;96.10
42841;DHT22;28491;46.898;7.660;2022-12-10T17:21:45;-0.40;96.00
42841;DHT22;28491;46.898;7.660;2022-12-10T17:24:10;-0.40;96.10
42841;DHT22;28491;46.898;7.660;2022-12-10T17:26:39;-0.50;95.90
42841;DHT22;28491;46.898;7.660;2022-12-10T17:29:18;-0.50;95.90
42841;DHT22;28491;46.898;7.660;2022-12-10T17:31:44;-0.50;95.80
42841;DHT22;28491;46.898;7.660;2022-12-10T17:34:11;-0.50;95.80
42841;DHT22;28491;46.898;7.660;2022-12-10T17:36:37;-0.50;96.00
42841;DHT22;28491;46.898;7.660;2022-12-10T17:39:03;-0.50;95.90
42841;DHT22;28491;46.898;7.660;2022-12-10T17:41:29;-0.50;95.90
42841;DHT22;28491;46.898;7.660;2022-12-10T17:43:54;-0.50;95.80
42841;DHT22;28491;46.898;7.660;2022-12-10T17:46:23;-0.50;95.90
42841;DHT22;28491;46.898;7.660;2022-12-10T17:48:49;-0.50;96.00
42841;DHT22;28491;46.898;7.660;2022-12-10T17:51:15;-0.50;96.00
42841;DHT22;28491;46.898;7.660;2022-12-10T17:53:40;-0.50;96.10
42841;DHT22;28491;46.898;7.660;2022-12-10T17:56:15;-0.60;95.70
42841;DHT22;28491;46.898;7.660;2022-12-10T17:58:41;-0.60;95.60